sensor_id;sensor_type;location;lat;lon;timestamp;pressure;altitude;pressure_sealevel;temperature;humidity
56174;BME280;42058;52.308;20.924;2022-07-29T00:02:14;101178.77;;;16.85;95.37
56174;BME280;42058;52.308;20.924;2022-07-29T00:04:41;101174.37;;;16.84;95.40
56174;BME280;42058;52.308;20.924;2022-07-29T00:07:07;101174.37;;;16.84;95.22
56174;BME280;42058;52.308;20.924;2022-07-29T00:09:33;101181.48;;;16.84;94.90
56174;BME280;42058;52.308;20.924;2022-07-29T00:12:00;101182.40;;;16.83;95.92
56174;BME280;42058;52.308;20.924;2022-07-29T00:14:28;101185.55;;;16.81;95.49
56174;BME280;42058;52.308;20.924;2022-07-29T00:16:54;101187.03;;;16.78;95.40
56174;BME280;42058;52.308;20.924;2022-07-29T00:19:20;101185.28;;;16.77;95.38
56174;BME280;42058;52.308;20.924;2022-07-29T00:21:46;101185.81;;;16.75;95.61
56174;BME280;42058;52.308;20.924;2022-07-29T00:24:13;101179.70;;;16.72;95.89
56174;BME280;42058;52.308;20.924;2022-07-29T00:26:39;101182.88;;;16.70;96.03
56174;BME280;42058;52.308;20.924;2022-07-29T00:29:05;101183.80;;;16.69;96.38
56174;BME280;42058;52.308;20.924;2022-07-29T00:31:31;101179.92;;;16.66;96.60
56174;BME280;42058;52.308;20.924;2022-07-29T00:33:57;101184.44;;;16.64;96.67
56174;BME280;42058;52.308;20.924;2022-07-29T00:36:23;101186.66;;;16.65;96.72
56174;BME280;42058;52.308;20.924;2022-07-29T00:38:50;101198.14;;;16.65;96.73
56174;BME280;42058;52.308;20.924;2022-07-29T00:41:17;101198.20;;;16.64;97.05
56174;BME280;42058;52.308;20.924;2022-07-29T00:43:44;101193.35;;;16.63;97.06
56174;BME280;42058;52.308;20.924;2022-07-29T00:46:11;101194.69;;;16.63;97.01
56174;BME280;42058;52.308;20.924;2022-07-29T00:48:38;101181.39;;;16.63;96.58
56174;BME280;42058;52.308;20.924;2022-07-29T00:51:05;101176.99;;;16.62;96.97
56174;BME280;42058;52.308;20.924;2022-07-29T00:53:34;101172.63;;;16.61;97.13
56174;BME280;42058;52.308;20.924;2022-07-29T00:56:01;101184.16;;;16.60;97.48
56174;BME280;42058;52.308;20.924;2022-07-29T00:58:27;101181.62;;;16.57;97.17
56174;BME280;42058;52.308;20.924;2022-07-29T01:00:53;101185.22;;;16.56;97.04
56174;BME280;42058;52.308;20.924;2022-07-29T01:03:19;101184.00;;;16.53;97.37
56174;BME280;42058;52.308;20.924;2022-07-29T01:05:46;101186.33;;;16.50;97.14
56174;BME280;42058;52.308;20.924;2022-07-29T01:08:14;101178.42;;;16.49;96.87
56174;BME280;42058;52.308;20.924;2022-07-29T01:10:42;101184.53;;;16.51;97.51
56174;BME280;42058;52.308;20.924;2022-07-29T01:13:10;101185.33;;;16.53;97.53
56174;BME280;42058;52.308;20.924;2022-07-29T01:15:53;101184.95;;;16.52;98.38
56174;BME280;42058;52.308;20.924;2022-07-29T01:18:30;101180.96;;;16.52;98.48
56174;BME280;42058;52.308;20.924;2022-07-29T01:29:55;101179.37;;;16.46;98.49
56174;BME280;42058;52.308;20.924;2022-07-29T01:32:22;101183.89;;;16.44;99.33
56174;BME280;42058;52.308;20.924;2022-07-29T01:35:21;101180.96;;;16.40;98.77
56174;BME280;42058;52.308;20.924;2022-07-29T01:37:45;101178.88;;;16.37;99.00
56174;BME280;42058;52.308;20.924;2022-07-29T01:40:22;101185.14;;;16.36;98.94
56174;BME280;42058;52.308;20.924;2022-07-29T01:42:52;101179.88;;;16.34;99.22
56174;BME280;42058;52.308;20.924;2022-07-29T01:45:26;101183.39;;;16.34;99.09
56174;BME280;42058;52.308;20.924;2022-07-29T01:48:19;101185.20;;;16.34;98.73
56174;BME280;42058;52.308;20.924;2022-07-29T01:50:47;101184.25;;;16.35;98.82
56174;BME280;42058;52.308;20.924;2022-07-29T01:53:21;101194.88;;;16.35;98.44
56174;BME280;42058;52.308;20.924;2022-07-29T01:55:55;101187.38;;;16.34;98.99
56174;BME280;42058;52.308;20.924;2022-07-29T01:58:24;101195.87;;;16.32;98.67
56174;BME280;42058;52.308;20.924;2022-07-29T02:00:52;101196.78;;;16.31;98.70
56174;BME280;42058;52.308;20.924;2022-07-29T02:03:20;101189.76;;;16.30;99.70
56174;BME280;42058;52.308;20.924;2022-07-29T02:05:48;101192.99;;;16.27;99.87
56174;BME280;42058;52.308;20.924;2022-07-29T02:08:16;101194.38;;;16.25;99.82
56174;BME280;42058;52.308;20.924;2022-07-29T02:10:47;101191.77;;;16.24;100.00
56174;BME280;42058;52.308;20.924;2022-07-29T02:13:16;101192.63;;;16.24;99.60
56174;BME280;42058;52.308;20.924;2022-07-29T02:15:44;101190.91;;;16.23;99.86
56174;BME280;42058;52.308;20.924;2022-07-29T02:18:17;101190.05;;;16.23;99.76
56174;BME280;42058;52.308;20.924;2022-07-29T02:20:44;101188.78;;;16.21;100.00
56174;BME280;42058;52.308;20.924;2022-07-29T02:23:15;101183.91;;;16.21;100.00
56174;BME280;42058;52.308;20.924;2022-07-29T02:25:51;101187.56;;;16.18;100.00
56174;BME280;42058;52.308;20.924;2022-07-29T02:28:20;101188.47;;;16.17;99.52
56174;BME280;42058;52.308;20.924;2022-07-29T02:30:49;101182.36;;;16.15;99.90
56174;BME280;42058;52.308;20.924;2022-07-29T02:33:18;101182.49;;;16.12;100.00
56174;BME280;42058;52.308;20.924;2022-07-29T02:35:47;101185.25;;;16.09;100.00
56174;BME280;42058;52.308;20.924;2022-07-29T02:38:15;101182.70;;;16.06;100.00
56174;BME280;42058;52.308;20.924;2022-07-29T02:41:08;101183.64;;;16.05;100.00
56174;BME280;42058;52.308;20.924;2022-07-29T02:43:37;101184.16;;;16.03;100.00
56174;BME280;42058;52.308;20.924;2022-07-29T02:46:07;101182.84;;;16.03;100.00
56174;BME280;42058;52.308;20.924;2022-07-29T02:48:38;101180.57;;;16.04;100.00
56174;BME280;42058;52.308;20.924;2022-07-29T02:51:19;101185.49;;;16.03;100.00
56174;BME280;42058;52.308;20.924;2022-07-29T02:53:51;101181.52;;;16.03;100.00
56174;BME280;42058;52.308;20.924;2022-07-29T02:56:23;101187.31;;;16.01;100.00
56174;BME280;42058;52.308;20.924;2022-07-29T02:58:57;101191.01;;;15.97;100.00
56174;BME280;42058;52.308;20.924;2022-07-29T03:01:23;101187.16;;;15.93;100.00
56174;BME280;42058;52.308;20.924;2022-07-29T03:03:52;101192.16;;;15.89;100.00
56174;BME280;42058;52.308;20.924;2022-07-29T03:06:21;101187.42;;;15.86;100.00
56174;BME280;42058;52.308;20.924;2022-07-29T03:08:49;101188.80;;;15.84;100.00
56174;BME280;42058;52.308;20.924;2022-07-29T03:11:16;101192.78;;;15.84;100.00
56174;BME280;42058;52.308;20.924;2022-07-29T03:13:43;101193.20;;;15.85;100.00
56174;BME280;42058;52.308;20.924;2022-07-29T03:16:11;101195.84;;;15.85;100.00
56174;BME280;42058;52.308;20.924;2022-07-29T03:18:39;101192.72;;;15.86;100.00
56174;BME280;42058;52.308;20.924;2022-07-29T03:21:05;101200.30;;;15.85;100.00
56174;BME280;42058;52.308;20.924;2022-07-29T03:23:31;101197.65;;;15.85;100.00
56174;BME280;42058;52.308;20.924;2022-07-29T03:25:57;101197.70;;;15.83;100.00
56174;BME280;42058;52.308;20.924;2022-07-29T03:28:23;101202.59;;;15.82;100.00
56174;BME280;42058;52.308;20.924;2022-07-29T03:30:50;101204.38;;;15.82;100.00
56174;BME280;42058;52.308;20.924;2022-07-29T03:33:16;101181.42;;;15.67;100.00
56174;BME280;42058;52.308;20.924;2022-07-29T03:35:42;101205.81;;;15.79;100.00
56174;BME280;42058;52.308;20.924;2022-07-29T03:38:08;101206.70;;;15.79;100.00
56174;BME280;42058;52.308;20.924;2022-07-29T03:40:46;101199.13;;;15.80;100.00
56174;BME280;42058;52.308;20.924;2022-07-29T03:43:15;101203.05;;;15.82;100.00
56174;BME280;42058;52.308;20.924;2022-07-29T03:45:45;101195.09;;;15.82;100.00
56174;BME280;42058;52.308;20.924;2022-07-29T03:48:16;101196.37;;;15.83;100.00
56174;BME280;42058;52.308;20.924;2022-07-29T03:50:44;101186.66;;;15.82;100.00
56174;BME280;42058;52.308;20.924;2022-07-29T03:53:10;101188.93;;;15.81;100.00
56174;BME280;42058;52.308;20.924;2022-07-29T03:55:40;101187.98;;;15.82;100.00
56174;BME280;42058;52.308;20.924;2022-07-29T03:58:08;101191.97;;;15.82;100.00
56174;BME280;42058;52.308;20.924;2022-07-29T04:00:36;101192.39;;;15.83;100.00
56174;BME280;42058;52.308;20.924;2022-07-29T04:03:04;101191.02;;;15.85;100.00
56174;BME280;42058;52.308;20.924;2022-07-29T04:05:31;101196.27;;;15.86;100.00
56174;BME280;42058;52.308;20.924;2022-07-29T04:07:57;101201.45;;;15.89;100.00
56174;BME280;42058;52.308;20.924;2022-07-29T04:10:24;101201.00;;;15.90;100.00
56174;BME280;42058;52.308;20.924;2022-07-29T04:12:50;101199.20;;;15.90;100.00
56174;BME280;42058;52.308;20.924;2022-07-29T04:15:16;101197.36;;;15.92;100.00
56174;BME280;42058;52.308;20.924;2022-07-29T04:17:42;101205.22;;;15.95;100.00
56174;BME280;42058;52.308;20.924;2022-07-29T04:20:10;101201.11;;;15.99;100.00
56174;BME280;42058;52.308;20.924;2022-07-29T04:22:39;101197.44;;;16.03;100.00
56174;BME280;42058;52.308;20.924;2022-07-29T04:25:07;101193.32;;;16.06;100.00
56174;BME280;42058;52.308;20.924;2022-07-29T04:27:33;101203.31;;;16.11;100.00
56174;BME280;42058;52.308;20.924;2022-07-29T04:29:59;101196.57;;;16.14;100.00
56174;BME280;42058;52.308;20.924;2022-07-29T04:32:25;101197.33;;;16.18;100.00
56174;BME280;42058;52.308;20.924;2022-07-29T04:34:52;101195.80;;;16.22;100.00
56174;BME280;42058;52.308;20.924;2022-07-29T04:37:18;101199.58;;;16.28;100.00
56174;BME280;42058;52.308;20.924;2022-07-29T04:39:44;101204.64;;;16.34;100.00
56174;BME280;42058;52.308;20.924;2022-07-29T04:42:10;101208.38;;;16.41;100.00
56174;BME280;42058;52.308;20.924;2022-07-29T04:44:36;101212.15;;;16.47;100.00
56174;BME280;42058;52.308;20.924;2022-07-29T04:47:03;101202.22;;;16.52;100.00
56174;BME280;42058;52.308;20.924;2022-07-29T04:49:30;101205.95;;;16.58;100.00
56174;BME280;42058;52.308;20.924;2022-07-29T04:51:56;101201.71;;;16.64;100.00
56174;BME280;42058;52.308;20.924;2022-07-29T04:54:22;101195.28;;;16.70;100.00
56174;BME280;42058;52.308;20.924;2022-07-29T04:56:48;101199.91;;;16.77;100.00
56174;BME280;42058;52.308;20.924;2022-07-29T04:59:15;101193.86;;;16.85;100.00
56174;BME280;42058;52.308;20.924;2022-07-29T05:01:41;101206.36;;;16.93;100.00
56174;BME280;42058;52.308;20.924;2022-07-29T05:04:07;101209.97;;;17.02;100.00
56174;BME280;42058;52.308;20.924;2022-07-29T05:06:33;101208.80;;;17.09;100.00
56174;BME280;42058;52.308;20.924;2022-07-29T05:08:59;101204.95;;;17.17;100.00
56174;BME280;42058;52.308;20.924;2022-07-29T05:11:25;101210.89;;;17.23;100.00
56174;BME280;42058;52.308;20.924;2022-07-29T05:13:52;101207.11;;;17.29;100.00
56174;BME280;42058;52.308;20.924;2022-07-29T05:16:18;101208.05;;;17.38;100.00
56174;BME280;42058;52.308;20.924;2022-07-29T05:18:44;101208.45;;;17.49;100.00
56174;BME280;42058;52.308;20.924;2022-07-29T05:21:10;101210.65;;;17.60;100.00
56174;BME280;42058;52.308;20.924;2022-07-29T05:23:37;101204.45;;;17.70;100.00
56174;BME280;42058;52.308;20.924;2022-07-29T05:26:03;101211.96;;;17.81;100.00
56174;BME280;42058;52.308;20.924;2022-07-29T05:28:34;101208.86;;;17.92;100.00
56174;BME280;42058;52.308;20.924;2022-07-29T05:31:03;101206.19;;;18.02;100.00
56174;BME280;42058;52.308;20.924;2022-07-29T05:33:29;101205.77;;;18.11;100.00
56174;BME280;42058;52.308;20.924;2022-07-29T05:35:55;101204.78;;;18.33;100.00
56174;BME280;42058;52.308;20.924;2022-07-29T05:38:22;101204.78;;;18.33;100.00
56174;BME280;42058;52.308;20.924;2022-07-29T05:40:48;101216.94;;;18.57;100.00
56174;BME280;42058;52.308;20.924;2022-07-29T05:43:14;101216.94;;;18.57;100.00
56174;BME280;42058;52.308;20.924;2022-07-29T05:45:40;101207.89;;;18.70;100.00
56174;BME280;42058;52.308;20.924;2022-07-29T05:48:08;101200.52;;;18.94;100.00
56174;BME280;42058;52.308;20.924;2022-07-29T05:50:34;101200.52;;;18.94;100.00
56174;BME280;42058;52.308;20.924;2022-07-29T05:53:00;101202.22;;;19.06;100.00
56174;BME280;42058;52.308;20.924;2022-07-29T05:55:26;101196.80;;;19.16;100.00
56174;BME280;42058;52.308;20.924;2022-07-29T05:57:53;101186.98;;;19.25;100.00
56174;BME280;42058;52.308;20.924;2022-07-29T06:00:19;101199.31;;;19.36;100.00
56174;BME280;42058;52.308;20.924;2022-07-29T06:02:45;101188.97;;;19.48;100.00
56174;BME280;42058;52.308;20.924;2022-07-29T06:05:12;101192.72;;;19.61;98.50
56174;BME280;42058;52.308;20.924;2022-07-29T06:07:38;101194.67;;;19.75;98.45
56174;BME280;42058;52.308;20.924;2022-07-29T06:10:04;101187.28;;;19.89;98.72
56174;BME280;42058;52.308;20.924;2022-07-29T06:12:31;101188.26;;;20.04;98.60
56174;BME280;42058;52.308;20.924;2022-07-29T06:14:57;101185.41;;;20.15;97.67
56174;BME280;42058;52.308;20.924;2022-07-29T06:17:23;101189.53;;;20.30;95.95
56174;BME280;42058;52.308;20.924;2022-07-29T06:19:49;101190.16;;;20.42;96.82
56174;BME280;42058;52.308;20.924;2022-07-29T06:22:16;101190.45;;;20.53;94.76
56174;BME280;42058;52.308;20.924;2022-07-29T06:24:43;101190.33;;;20.64;92.84
56174;BME280;42058;52.308;20.924;2022-07-29T06:27:10;101188.09;;;20.72;91.84
56174;BME280;42058;52.308;20.924;2022-07-29T06:29:37;101179.55;;;20.81;90.71
56174;BME280;42058;52.308;20.924;2022-07-29T06:32:03;101180.27;;;20.92;91.72
56174;BME280;42058;52.308;20.924;2022-07-29T06:34:30;101183.09;;;21.05;91.37
56174;BME280;42058;52.308;20.924;2022-07-29T06:36:56;101179.49;;;21.20;91.61
56174;BME280;42058;52.308;20.924;2022-07-29T06:39:22;101176.46;;;21.34;89.80
56174;BME280;42058;52.308;20.924;2022-07-29T06:41:49;101182.37;;;21.47;90.29
56174;BME280;42058;52.308;20.924;2022-07-29T06:44:17;101182.77;;;21.63;89.30
56174;BME280;42058;52.308;20.924;2022-07-29T06:46:44;101177.16;;;21.75;88.51
56174;BME280;42058;52.308;20.924;2022-07-29T06:49:10;101173.52;;;21.90;89.18
56174;BME280;42058;52.308;20.924;2022-07-29T06:51:36;101173.91;;;22.05;88.74
56174;BME280;42058;52.308;20.924;2022-07-29T06:54:02;101171.22;;;22.20;87.17
56174;BME280;42058;52.308;20.924;2022-07-29T06:56:31;101180.03;;;22.36;85.46
56174;BME280;42058;52.308;20.924;2022-07-29T06:58:58;101173.86;;;22.49;84.93
56174;BME280;42058;52.308;20.924;2022-07-29T07:01:24;101173.46;;;22.62;83.96
56174;BME280;42058;52.308;20.924;2022-07-29T07:03:51;101178.00;;;22.74;82.50
56174;BME280;42058;52.308;20.924;2022-07-29T07:06:17;101177.20;;;22.87;80.79
56174;BME280;42058;52.308;20.924;2022-07-29T07:08:43;101182.70;;;22.98;81.21
56174;BME280;42058;52.308;20.924;2022-07-29T07:11:09;101175.11;;;23.12;80.87
56174;BME280;42058;52.308;20.924;2022-07-29T07:13:35;101175.53;;;23.26;79.42
56174;BME280;42058;52.308;20.924;2022-07-29T07:16:01;101176.50;;;23.37;77.60
56174;BME280;42058;52.308;20.924;2022-07-29T07:18:28;101170.19;;;23.51;77.55
56174;BME280;42058;52.308;20.924;2022-07-29T07:20:55;101183.14;;;23.65;77.00
56174;BME280;42058;52.308;20.924;2022-07-29T07:23:22;101175.92;;;23.78;76.32
56174;BME280;42058;52.308;20.924;2022-07-29T07:25:48;101178.05;;;23.93;76.45
56174;BME280;42058;52.308;20.924;2022-07-29T07:28:14;101175.34;;;24.06;74.85
56174;BME280;42058;52.308;20.924;2022-07-29T07:30:40;101168.59;;;24.18;72.40
56174;BME280;42058;52.308;20.924;2022-07-29T07:33:06;101167.25;;;24.31;73.35
56174;BME280;42058;52.308;20.924;2022-07-29T07:35:32;101176.48;;;24.46;72.67
56174;BME280;42058;52.308;20.924;2022-07-29T07:37:59;101177.36;;;24.59;71.11
56174;BME280;42058;52.308;20.924;2022-07-29T07:40:25;101162.50;;;24.72;70.18
56174;BME280;42058;52.308;20.924;2022-07-29T07:42:51;101168.18;;;24.86;69.44
56174;BME280;42058;52.308;20.924;2022-07-29T07:45:17;101169.00;;;24.99;69.47
56174;BME280;42058;52.308;20.924;2022-07-29T07:47:43;101172.47;;;25.12;68.68
56174;BME280;42058;52.308;20.924;2022-07-29T07:50:11;101174.84;;;25.23;68.29
56174;BME280;42058;52.308;20.924;2022-07-29T07:52:48;101175.64;;;25.36;67.42
56174;BME280;42058;52.308;20.924;2022-07-29T07:55:16;101170.27;;;25.47;65.99
56174;BME280;42058;52.308;20.924;2022-07-29T07:57:43;101163.92;;;25.60;64.11
56174;BME280;42058;52.308;20.924;2022-07-29T08:00:09;101171.52;;;25.71;64.44
56174;BME280;42058;52.308;20.924;2022-07-29T08:02:40;101175.57;;;25.83;63.67
56174;BME280;42058;52.308;20.924;2022-07-29T08:05:08;101172.82;;;25.96;63.74
56174;BME280;42058;52.308;20.924;2022-07-29T08:07:35;101173.89;;;26.10;62.30
56174;BME280;42058;52.308;20.924;2022-07-29T08:10:01;101171.94;;;26.23;63.13
56174;BME280;42058;52.308;20.924;2022-07-29T08:12:27;101173.16;;;26.36;60.76
56174;BME280;42058;52.308;20.924;2022-07-29T08:14:54;101173.13;;;26.47;60.06
56174;BME280;42058;52.308;20.924;2022-07-29T08:17:20;101167.34;;;26.58;58.24
56174;BME280;42058;52.308;20.924;2022-07-29T08:19:46;101169.16;;;26.69;57.84
56174;BME280;42058;52.308;20.924;2022-07-29T08:22:14;101160.55;;;26.80;57.80
56174;BME280;42058;52.308;20.924;2022-07-29T08:24:40;101163.92;;;26.94;57.79
56174;BME280;42058;52.308;20.924;2022-07-29T08:27:10;101159.47;;;27.04;57.08
56174;BME280;42058;52.308;20.924;2022-07-29T08:29:36;101164.30;;;27.16;56.45
56174;BME280;42058;52.308;20.924;2022-07-29T08:32:03;101157.55;;;27.27;55.70
56174;BME280;42058;52.308;20.924;2022-07-29T08:34:30;101162.88;;;27.38;55.53
56174;BME280;42058;52.308;20.924;2022-07-29T08:36:56;101161.49;;;27.44;54.25
56174;BME280;42058;52.308;20.924;2022-07-29T08:39:23;101158.50;;;27.53;54.29
56174;BME280;42058;52.308;20.924;2022-07-29T08:41:49;101161.03;;;27.60;54.23
56174;BME280;42058;52.308;20.924;2022-07-29T08:44:19;101156.05;;;27.65;54.45
56174;BME280;42058;52.308;20.924;2022-07-29T08:46:48;101161.40;;;27.76;54.03
56174;BME280;42058;52.308;20.924;2022-07-29T08:49:16;101164.48;;;27.87;53.18
56174;BME280;42058;52.308;20.924;2022-07-29T08:51:43;101168.18;;;27.92;52.81
56174;BME280;42058;52.308;20.924;2022-07-29T08:54:10;101170.20;;;27.99;51.94
56174;BME280;42058;52.308;20.924;2022-07-29T08:56:38;101173.44;;;28.09;51.83
56174;BME280;42058;52.308;20.924;2022-07-29T08:59:05;101167.33;;;28.16;51.34
56174;BME280;42058;52.308;20.924;2022-07-29T09:01:36;101169.44;;;28.18;50.87
56174;BME280;42058;52.308;20.924;2022-07-29T09:04:04;101159.33;;;28.21;50.30
56174;BME280;42058;52.308;20.924;2022-07-29T09:06:34;101156.05;;;28.27;51.12
56174;BME280;42058;52.308;20.924;2022-07-29T09:09:03;101154.64;;;28.32;50.89
56174;BME280;42058;52.308;20.924;2022-07-29T09:11:32;101157.22;;;28.34;50.42
56174;BME280;42058;52.308;20.924;2022-07-29T09:13:58;101150.84;;;28.29;50.64
56174;BME280;42058;52.308;20.924;2022-07-29T09:16:25;101150.64;;;28.27;50.79
56174;BME280;42058;52.308;20.924;2022-07-29T09:18:51;101150.19;;;28.22;50.05
56174;BME280;42058;52.308;20.924;2022-07-29T09:21:17;101150.77;;;28.25;51.15
56174;BME280;42058;52.308;20.924;2022-07-29T09:24:07;101144.45;;;28.30;50.52
56174;BME280;42058;52.308;20.924;2022-07-29T09:26:38;101138.67;;;28.29;49.58
56174;BME280;42058;52.308;20.924;2022-07-29T09:29:15;101149.92;;;28.25;49.36
56174;BME280;42058;52.308;20.924;2022-07-29T09:31:48;101151.99;;;28.27;50.19
56174;BME280;42058;52.308;20.924;2022-07-29T09:34:21;101150.91;;;28.24;49.43
56174;BME280;42058;52.308;20.924;2022-07-29T09:36:50;101143.48;;;28.16;49.03
56174;BME280;42058;52.308;20.924;2022-07-29T09:39:32;101138.77;;;28.08;48.30
56174;BME280;42058;52.308;20.924;2022-07-29T09:42:02;101133.28;;;28.04;49.07
56174;BME280;42058;52.308;20.924;2022-07-29T09:44:44;101137.05;;;28.07;49.30
56174;BME280;42058;52.308;20.924;2022-07-29T09:47:11;101138.50;;;28.11;49.91
56174;BME280;42058;52.308;20.924;2022-07-29T09:49:55;101138.08;;;28.16;49.38
56174;BME280;42058;52.308;20.924;2022-07-29T09:52:26;101143.36;;;28.17;48.79
56174;BME280;42058;52.308;20.924;2022-07-29T09:54:53;101130.97;;;28.15;48.08
56174;BME280;42058;52.308;20.924;2022-07-29T09:57:28;101133.94;;;28.12;47.88
56174;BME280;42058;52.308;20.924;2022-07-29T09:59:58;101123.25;;;28.10;47.54
56174;BME280;42058;52.308;20.924;2022-07-29T10:02:35;101124.61;;;28.10;48.30
56174;BME280;42058;52.308;20.924;2022-07-29T10:05:05;101127.23;;;28.06;47.36
56174;BME280;42058;52.308;20.924;2022-07-29T10:07:46;101135.75;;;28.02;47.36
56174;BME280;42058;52.308;20.924;2022-07-29T10:10:28;101129.33;;;27.93;47.67
56174;BME280;42058;52.308;20.924;2022-07-29T10:12:59;101124.42;;;27.87;47.57
56174;BME280;42058;52.308;20.924;2022-07-29T10:15:29;101121.89;;;27.79;47.19
56174;BME280;42058;52.308;20.924;2022-07-29T10:17:59;101119.33;;;27.78;47.04
56174;BME280;42058;52.308;20.924;2022-07-29T10:20:27;101105.00;;;27.72;46.63
56174;BME280;42058;52.308;20.924;2022-07-29T10:22:53;101111.89;;;27.70;47.01
56174;BME280;42058;52.308;20.924;2022-07-29T10:25:21;101101.34;;;27.67;46.88
56174;BME280;42058;52.308;20.924;2022-07-29T10:27:49;101112.53;;;27.68;47.08
56174;BME280;42058;52.308;20.924;2022-07-29T10:30:31;101114.39;;;27.68;46.04
56174;BME280;42058;52.308;20.924;2022-07-29T10:39:18;101104.97;;;27.62;45.62
56174;BME280;42058;52.308;20.924;2022-07-29T10:42:19;101097.50;;;27.60;45.53
56174;BME280;42058;52.308;20.924;2022-07-29T10:44:49;101102.91;;;27.60;45.90
56174;BME280;42058;52.308;20.924;2022-07-29T10:47:26;101103.25;;;27.61;45.79
56174;BME280;42058;52.308;20.924;2022-07-29T10:50:02;101105.45;;;27.61;45.39
56174;BME280;42058;52.308;20.924;2022-07-29T10:55:37;101094.87;;;27.64;45.83
56174;BME280;42058;52.308;20.924;2022-07-29T10:58:22;101096.23;;;27.64;45.94
56174;BME280;42058;52.308;20.924;2022-07-29T11:00:51;101097.58;;;27.64;45.50
56174;BME280;42058;52.308;20.924;2022-07-29T11:06:11;101096.99;;;27.60;44.95
56174;BME280;42058;52.308;20.924;2022-07-29T11:08:37;101091.72;;;27.59;44.97
56174;BME280;42058;52.308;20.924;2022-07-29T11:13:53;101091.59;;;27.60;44.88
56174;BME280;42058;52.308;20.924;2022-07-29T11:16:22;101080.19;;;27.57;44.77
56174;BME280;42058;52.308;20.924;2022-07-29T11:21:45;101074.06;;;27.55;44.84
56174;BME280;42058;52.308;20.924;2022-07-29T11:24:22;101077.48;;;27.57;44.84
56174;BME280;42058;52.308;20.924;2022-07-29T11:29:49;101072.71;;;27.55;43.28
56174;BME280;42058;52.308;20.924;2022-07-29T11:32:23;101069.63;;;27.54;43.66
56174;BME280;42058;52.308;20.924;2022-07-29T11:35:16;101065.70;;;27.52;43.81
56174;BME280;42058;52.308;20.924;2022-07-29T11:37:46;101063.89;;;27.53;43.73
56174;BME280;42058;52.308;20.924;2022-07-29T11:40:14;101058.82;;;27.54;44.08
56174;BME280;42058;52.308;20.924;2022-07-29T11:42:43;101062.88;;;27.54;44.32
56174;BME280;42058;52.308;20.924;2022-07-29T11:45:16;101066.93;;;27.54;44.68
56174;BME280;42058;52.308;20.924;2022-07-29T11:47:53;101063.89;;;27.53;44.18
56174;BME280;42058;52.308;20.924;2022-07-29T11:50:32;101057.60;;;27.52;43.92
56174;BME280;42058;52.308;20.924;2022-07-29T11:53:03;101049.36;;;27.54;44.64
56174;BME280;42058;52.308;20.924;2022-07-29T11:55:38;101056.49;;;27.55;44.78
56174;BME280;42058;52.308;20.924;2022-07-29T11:58:06;101048.52;;;27.53;44.41
56174;BME280;42058;52.308;20.924;2022-07-29T12:00:35;101044.33;;;27.55;44.38
56174;BME280;42058;52.308;20.924;2022-07-29T12:03:08;101037.91;;;27.56;44.20
56174;BME280;42058;52.308;20.924;2022-07-29T12:05:38;101049.89;;;27.63;44.36
56174;BME280;42058;52.308;20.924;2022-07-29T12:08:21;101047.64;;;27.68;43.30
56174;BME280;42058;52.308;20.924;2022-07-29T12:10:50;101047.72;;;27.72;43.44
56174;BME280;42058;52.308;20.924;2022-07-29T12:13:18;101051.51;;;27.75;43.03
56174;BME280;42058;52.308;20.924;2022-07-29T12:15:54;101045.12;;;27.76;43.34
56174;BME280;42058;52.308;20.924;2022-07-29T12:18:23;101055.64;;;27.79;43.57
56174;BME280;42058;52.308;20.924;2022-07-29T12:20:58;101061.77;;;27.81;43.39
56174;BME280;42058;52.308;20.924;2022-07-29T12:23:25;101056.09;;;27.85;43.46
56174;BME280;42058;52.308;20.924;2022-07-29T12:25:51;101051.77;;;27.88;43.40
56174;BME280;42058;52.308;20.924;2022-07-29T12:28:17;101050.14;;;27.91;43.19
56174;BME280;42058;52.308;20.924;2022-07-29T12:30:48;101046.84;;;27.93;43.40
56174;BME280;42058;52.308;20.924;2022-07-29T12:33:23;101051.61;;;27.95;43.47
56174;BME280;42058;52.308;20.924;2022-07-29T12:35:56;101043.83;;;27.96;43.70
56174;BME280;42058;52.308;20.924;2022-07-29T12:38:23;101037.78;;;27.98;43.70
56174;BME280;42058;52.308;20.924;2022-07-29T12:40:51;101027.67;;;28.00;43.53
56174;BME280;42058;52.308;20.924;2022-07-29T12:43:24;101037.64;;;27.99;43.07
56174;BME280;42058;52.308;20.924;2022-07-29T12:45:50;101032.38;;;27.98;42.82
56174;BME280;42058;52.308;20.924;2022-07-29T12:48:37;101031.32;;;27.95;42.79
56174;BME280;42058;52.308;20.924;2022-07-29T12:51:06;101029.59;;;27.94;42.60
56174;BME280;42058;52.308;20.924;2022-07-29T12:53:35;101036.63;;;27.91;43.01
56174;BME280;42058;52.308;20.924;2022-07-29T12:56:04;101028.78;;;27.88;42.57
56174;BME280;42058;52.308;20.924;2022-07-29T12:58:35;101033.47;;;27.86;42.91
56174;BME280;42058;52.308;20.924;2022-07-29T13:01:06;101035.30;;;27.85;43.48
56174;BME280;42058;52.308;20.924;2022-07-29T13:03:56;101036.31;;;27.84;42.99
56174;BME280;42058;52.308;20.924;2022-07-29T13:09:16;101025.45;;;27.74;42.74
56174;BME280;42058;52.308;20.924;2022-07-29T13:11:47;101032.08;;;27.76;42.55
56174;BME280;42058;52.308;20.924;2022-07-29T13:14:34;101028.08;;;27.70;42.31
56174;BME280;42058;52.308;20.924;2022-07-29T13:17:12;101025.30;;;27.66;42.07
56174;BME280;42058;52.308;20.924;2022-07-29T13:19:46;101014.53;;;27.60;42.51
56174;BME280;42058;52.308;20.924;2022-07-29T13:22:15;101023.42;;;27.57;42.60